sensor_id;sensor_type;location;lat;lon;timestamp;P1;durP1;ratioP1;P2;durP2;ratioP2
67997;SDS011;54773;53.388;-1.504;2023-10-19T00:00:41;7.18;;;4.40;;
67997;SDS011;54773;53.388;-1.504;2023-10-19T00:03:29;8.55;;;4.55;;
67997;SDS011;54773;53.388;-1.504;2023-10-19T00:06:14;7.40;;;3.17;;
67997;SDS011;54773;53.388;-1.504;2023-10-19T00:08:58;7.75;;;3.65;;
67997;SDS011;54773;53.388;-1.504;2023-10-19T00:11:43;5.82;;;3.85;;
67997;SDS011;54773;53.388;-1.504;2023-10-19T00:14:27;6.38;;;4.18;;
67997;SDS011;54773;53.388;-1.504;2023-10-19T00:17:11;5.90;;;3.83;;
67997;SDS011;54773;53.388;-1.504;2023-10-19T00:19:58;6.55;;;4.07;;
67997;SDS011;54773;53.388;-1.504;2023-10-19T00:23:02;8.05;;;3.55;;
67997;SDS011;54773;53.388;-1.504;2023-10-19T00:25:49;6.68;;;3.30;;
67997;SDS011;54773;53.388;-1.504;2023-10-19T00:28:37;6.32;;;3.13;;
67997;SDS011;54773;53.388;-1.504;2023-10-19T00:31:22;5.45;;;3.33;;
67997;SDS011;54773;53.388;-1.504;2023-10-19T00:36:51;4.82;;;3.35;;
67997;SDS011;54773;53.388;-1.504;2023-10-19T00:39:36;5.00;;;3.05;;
67997;SDS011;54773;53.388;-1.504;2023-10-19T00:42:37;6.60;;;3.10;;
67997;SDS011;54773;53.388;-1.504;2023-10-19T00:45:29;4.32;;;2.30;;
67997;SDS011;54773;53.388;-1.504;2023-10-19T00:48:15;4.70;;;2.25;;
67997;SDS011;54773;53.388;-1.504;2023-10-19T00:51:01;4.90;;;2.25;;
67997;SDS011;54773;53.388;-1.504;2023-10-19T00:54:08;4.47;;;2.00;;
67997;SDS011;54773;53.388;-1.504;2023-10-19T00:56:54;4.07;;;2.15;;
67997;SDS011;54773;53.388;-1.504;2023-10-19T00:59:42;4.97;;;2.03;;
67997;SDS011;54773;53.388;-1.504;2023-10-19T01:02:38;3.28;;;1.70;;
67997;SDS011;54773;53.388;-1.504;2023-10-19T01:05:29;3.72;;;2.00;;
67997;SDS011;54773;53.388;-1.504;2023-10-19T01:08:19;3.63;;;1.90;;
67997;SDS011;54773;53.388;-1.504;2023-10-19T01:11:10;4.10;;;2.05;;
67997;SDS011;54773;53.388;-1.504;2023-10-19T01:13:55;3.75;;;1.95;;
67997;SDS011;54773;53.388;-1.504;2023-10-19T01:16:47;3.63;;;1.98;;
67997;SDS011;54773;53.388;-1.504;2023-10-19T01:19:31;4.85;;;2.40;;
67997;SDS011;54773;53.388;-1.504;2023-10-19T01:22:15;9.15;;;3.22;;
67997;SDS011;54773;53.388;-1.504;2023-10-19T01:25:02;18.58;;;3.42;;
67997;SDS011;54773;53.388;-1.504;2023-10-19T01:27:49;23.35;;;4.20;;
67997;SDS011;54773;53.388;-1.504;2023-10-19T01:30:33;25.42;;;3.63;;
67997;SDS011;54773;53.388;-1.504;2023-10-19T01:36:02;8.93;;;2.53;;
67997;SDS011;54773;53.388;-1.504;2023-10-19T01:38:58;6.60;;;2.72;;
67997;SDS011;54773;53.388;-1.504;2023-10-19T01:41:45;10.45;;;2.80;;
67997;SDS011;54773;53.388;-1.504;2023-10-19T01:44:29;4.03;;;2.45;;
67997;SDS011;54773;53.388;-1.504;2023-10-19T01:47:13;16.45;;;3.00;;
67997;SDS011;54773;53.388;-1.504;2023-10-19T01:49:59;9.32;;;2.58;;
67997;SDS011;54773;53.388;-1.504;2023-10-19T01:52:43;5.53;;;2.63;;
67997;SDS011;54773;53.388;-1.504;2023-10-19T01:55:28;3.78;;;2.25;;
67997;SDS011;54773;53.388;-1.504;2023-10-19T01:58:12;3.88;;;2.30;;
67997;SDS011;54773;53.388;-1.504;2023-10-19T02:00:58;3.13;;;1.65;;
67997;SDS011;54773;53.388;-1.504;2023-10-19T02:03:46;2.70;;;1.30;;
67997;SDS011;54773;53.388;-1.504;2023-10-19T02:06:32;3.13;;;1.30;;
67997;SDS011;54773;53.388;-1.504;2023-10-19T02:09:17;2.40;;;1.10;;
67997;SDS011;54773;53.388;-1.504;2023-10-19T02:12:05;2.45;;;1.17;;
67997;SDS011;54773;53.388;-1.504;2023-10-19T02:14:51;2.70;;;1.10;;
67997;SDS011;54773;53.388;-1.504;2023-10-19T02:17:36;2.50;;;0.90;;
67997;SDS011;54773;53.388;-1.504;2023-10-19T02:20:20;2.33;;;0.73;;
67997;SDS011;54773;53.388;-1.504;2023-10-19T02:23:08;1.17;;;0.68;;
67997;SDS011;54773;53.388;-1.504;2023-10-19T02:25:52;1.25;;;0.45;;
67997;SDS011;54773;53.388;-1.504;2023-10-19T02:28:36;1.25;;;0.60;;
67997;SDS011;54773;53.388;-1.504;2023-10-19T02:31:22;1.60;;;0.60;;
67997;SDS011;54773;53.388;-1.504;2023-10-19T02:34:07;0.77;;;0.40;;
67997;SDS011;54773;53.388;-1.504;2023-10-19T02:36:55;0.50;;;0.40;;
67997;SDS011;54773;53.388;-1.504;2023-10-19T02:39:39;0.77;;;0.47;;
67997;SDS011;54773;53.388;-1.504;2023-10-19T02:42:23;0.80;;;0.40;;
67997;SDS011;54773;53.388;-1.504;2023-10-19T02:45:08;0.32;;;0.30;;
67997;SDS011;54773;53.388;-1.504;2023-10-19T02:47:52;0.30;;;0.28;;
67997;SDS011;54773;53.388;-1.504;2023-10-19T02:50:36;0.43;;;0.30;;
67997;SDS011;54773;53.388;-1.504;2023-10-19T02:53:20;0.40;;;0.30;;
67997;SDS011;54773;53.388;-1.504;2023-10-19T02:56:11;0.30;;;0.30;;
67997;SDS011;54773;53.388;-1.504;2023-10-19T02:58:56;0.55;;;0.40;;
67997;SDS011;54773;53.388;-1.504;2023-10-19T03:01:47;0.75;;;0.40;;
67997;SDS011;54773;53.388;-1.504;2023-10-19T03:04:35;0.30;;;0.30;;
67997;SDS011;54773;53.388;-1.504;2023-10-19T03:07:19;0.40;;;0.30;;
67997;SDS011;54773;53.388;-1.504;2023-10-19T03:10:03;0.73;;;0.40;;
67997;SDS011;54773;53.388;-1.504;2023-10-19T03:12:52;1.65;;;0.40;;
67997;SDS011;54773;53.388;-1.504;2023-10-19T03:15:36;0.98;;;0.40;;
67997;SDS011;54773;53.388;-1.504;2023-10-19T03:18:23;1.70;;;0.70;;
67997;SDS011;54773;53.388;-1.504;2023-10-19T03:21:09;1.75;;;0.80;;
67997;SDS011;54773;53.388;-1.504;2023-10-19T03:23:54;3.85;;;1.38;;
67997;SDS011;54773;53.388;-1.504;2023-10-19T03:26:40;2.63;;;1.20;;
67997;SDS011;54773;53.388;-1.504;2023-10-19T03:29:32;5.40;;;1.83;;
67997;SDS011;54773;53.388;-1.504;2023-10-19T03:32:16;4.30;;;2.28;;
67997;SDS011;54773;53.388;-1.504;2023-10-19T03:34:59;3.80;;;2.20;;
67997;SDS011;54773;53.388;-1.504;2023-10-19T03:37:44;5.70;;;3.20;;
67997;SDS011;54773;53.388;-1.504;2023-10-19T03:40:31;5.13;;;2.83;;
67997;SDS011;54773;53.388;-1.504;2023-10-19T03:43:16;6.25;;;3.95;;
67997;SDS011;54773;53.388;-1.504;2023-10-19T03:46:02;7.60;;;4.38;;
67997;SDS011;54773;53.388;-1.504;2023-10-19T03:48:50;7.38;;;4.75;;
67997;SDS011;54773;53.388;-1.504;2023-10-19T03:51:34;8.00;;;4.85;;
67997;SDS011;54773;53.388;-1.504;2023-10-19T03:54:41;8.15;;;5.57;;
67997;SDS011;54773;53.388;-1.504;2023-10-19T03:57:26;8.77;;;5.25;;
67997;SDS011;54773;53.388;-1.504;2023-10-19T04:00:13;8.75;;;5.18;;
67997;SDS011;54773;53.388;-1.504;2023-10-19T04:03:02;8.93;;;5.55;;
67997;SDS011;54773;53.388;-1.504;2023-10-19T04:05:46;10.25;;;5.63;;
67997;SDS011;54773;53.388;-1.504;2023-10-19T04:08:30;9.60;;;5.20;;
67997;SDS011;54773;53.388;-1.504;2023-10-19T04:11:18;9.70;;;5.40;;
67997;SDS011;54773;53.388;-1.504;2023-10-19T04:14:05;9.88;;;5.63;;
67997;SDS011;54773;53.388;-1.504;2023-10-19T04:16:49;9.63;;;5.53;;
67997;SDS011;54773;53.388;-1.504;2023-10-19T04:19:33;8.85;;;5.05;;
67997;SDS011;54773;53.388;-1.504;2023-10-19T04:22:17;8.63;;;4.87;;
67997;SDS011;54773;53.388;-1.504;2023-10-19T04:25:08;10.75;;;5.93;;
67997;SDS011;54773;53.388;-1.504;2023-10-19T04:27:56;10.55;;;6.00;;
67997;SDS011;54773;53.388;-1.504;2023-10-19T04:30:40;12.00;;;6.32;;
67997;SDS011;54773;53.388;-1.504;2023-10-19T04:33:25;12.13;;;6.75;;
67997;SDS011;54773;53.388;-1.504;2023-10-19T04:36:12;10.52;;;6.25;;
67997;SDS011;54773;53.388;-1.504;2023-10-19T04:38:57;10.50;;;6.78;;
67997;SDS011;54773;53.388;-1.504;2023-10-19T04:41:41;10.68;;;5.70;;
67997;SDS011;54773;53.388;-1.504;2023-10-19T04:44:25;11.30;;;7.03;;
67997;SDS011;54773;53.388;-1.504;2023-10-19T04:47:09;10.55;;;6.38;;
67997;SDS011;54773;53.388;-1.504;2023-10-19T04:49:53;10.15;;;5.85;;
67997;SDS011;54773;53.388;-1.504;2023-10-19T04:52:37;11.55;;;6.43;;
67997;SDS011;54773;53.388;-1.504;2023-10-19T04:55:22;9.90;;;5.95;;
67997;SDS011;54773;53.388;-1.504;2023-10-19T04:58:06;10.32;;;5.97;;
67997;SDS011;54773;53.388;-1.504;2023-10-19T05:00:50;9.43;;;5.83;;
67997;SDS011;54773;53.388;-1.504;2023-10-19T05:03:35;9.32;;;5.32;;
67997;SDS011;54773;53.388;-1.504;2023-10-19T05:06:19;9.15;;;5.50;;
67997;SDS011;54773;53.388;-1.504;2023-10-19T05:09:02;8.57;;;5.07;;
67997;SDS011;54773;53.388;-1.504;2023-10-19T05:11:46;7.75;;;4.55;;
67997;SDS011;54773;53.388;-1.504;2023-10-19T05:14:31;7.22;;;4.35;;
67997;SDS011;54773;53.388;-1.504;2023-10-19T05:17:15;9.45;;;4.70;;
67997;SDS011;54773;53.388;-1.504;2023-10-19T05:20:05;6.93;;;4.63;;
67997;SDS011;54773;53.388;-1.504;2023-10-19T05:22:49;6.07;;;3.95;;
67997;SDS011;54773;53.388;-1.504;2023-10-19T05:25:33;7.23;;;4.20;;
67997;SDS011;54773;53.388;-1.504;2023-10-19T05:28:17;6.30;;;4.10;;
67997;SDS011;54773;53.388;-1.504;2023-10-19T05:31:02;5.63;;;4.00;;
67997;SDS011;54773;53.388;-1.504;2023-10-19T05:33:48;6.05;;;3.88;;
67997;SDS011;54773;53.388;-1.504;2023-10-19T05:36:36;8.10;;;4.60;;
67997;SDS011;54773;53.388;-1.504;2023-10-19T05:39:20;7.22;;;4.18;;
67997;SDS011;54773;53.388;-1.504;2023-10-19T05:42:11;5.68;;;4.03;;
67997;SDS011;54773;53.388;-1.504;2023-10-19T05:44:55;7.20;;;4.20;;
67997;SDS011;54773;53.388;-1.504;2023-10-19T05:47:39;5.63;;;3.55;;
67997;SDS011;54773;53.388;-1.504;2023-10-19T05:50:23;6.03;;;3.30;;
67997;SDS011;54773;53.388;-1.504;2023-10-19T05:53:08;8.27;;;4.97;;
67997;SDS011;54773;53.388;-1.504;2023-10-19T05:55:52;13.30;;;4.53;;
67997;SDS011;54773;53.388;-1.504;2023-10-19T05:58:36;5.90;;;3.58;;
67997;SDS011;54773;53.388;-1.504;2023-10-19T06:01:20;6.82;;;3.88;;
67997;SDS011;54773;53.388;-1.504;2023-10-19T06:04:05;6.32;;;4.18;;
67997;SDS011;54773;53.388;-1.504;2023-10-19T06:06:50;7.00;;;4.57;;
67997;SDS011;54773;53.388;-1.504;2023-10-19T06:09:35;9.23;;;4.22;;
67997;SDS011;54773;53.388;-1.504;2023-10-19T06:12:19;8.65;;;4.30;;
67997;SDS011;54773;53.388;-1.504;2023-10-19T06:15:03;8.80;;;4.07;;
67997;SDS011;54773;53.388;-1.504;2023-10-19T06:17:48;11.75;;;5.22;;
67997;SDS011;54773;53.388;-1.504;2023-10-19T06:20:32;11.70;;;5.38;;
67997;SDS011;54773;53.388;-1.504;2023-10-19T06:23:17;11.27;;;5.80;;
67997;SDS011;54773;53.388;-1.504;2023-10-19T06:26:08;12.73;;;6.38;;
67997;SDS011;54773;53.388;-1.504;2023-10-19T06:28:54;10.43;;;5.95;;
67997;SDS011;54773;53.388;-1.504;2023-10-19T06:31:45;10.52;;;6.07;;
67997;SDS011;54773;53.388;-1.504;2023-10-19T06:34:29;10.38;;;5.88;;
67997;SDS011;54773;53.388;-1.504;2023-10-19T06:37:16;12.77;;;5.93;;
67997;SDS011;54773;53.388;-1.504;2023-10-19T06:40:00;9.68;;;5.18;;
67997;SDS011;54773;53.388;-1.504;2023-10-19T06:42:44;10.73;;;5.40;;
67997;SDS011;54773;53.388;-1.504;2023-10-19T06:45:32;10.35;;;5.10;;
67997;SDS011;54773;53.388;-1.504;2023-10-19T06:48:16;10.65;;;4.90;;
67997;SDS011;54773;53.388;-1.504;2023-10-19T06:51:00;11.40;;;4.93;;
67997;SDS011;54773;53.388;-1.504;2023-10-19T06:53:44;11.52;;;5.28;;
67997;SDS011;54773;53.388;-1.504;2023-10-19T06:56:27;20.50;;;5.87;;
67997;SDS011;54773;53.388;-1.504;2023-10-19T06:59:11;11.68;;;5.13;;
67997;SDS011;54773;53.388;-1.504;2023-10-19T07:01:56;12.38;;;6.40;;
67997;SDS011;54773;53.388;-1.504;2023-10-19T07:04:40;17.05;;;7.60;;
67997;SDS011;54773;53.388;-1.504;2023-10-19T07:07:24;11.05;;;5.65;;
67997;SDS011;54773;53.388;-1.504;2023-10-19T07:10:09;11.80;;;5.70;;
67997;SDS011;54773;53.388;-1.504;2023-10-19T07:12:54;14.02;;;5.60;;
67997;SDS011;54773;53.388;-1.504;2023-10-19T07:15:39;14.80;;;6.60;;
67997;SDS011;54773;53.388;-1.504;2023-10-19T07:18:25;29.17;;;7.72;;
67997;SDS011;54773;53.388;-1.504;2023-10-19T07:21:09;11.65;;;5.50;;
67997;SDS011;54773;53.388;-1.504;2023-10-19T07:23:53;14.73;;;6.17;;
67997;SDS011;54773;53.388;-1.504;2023-10-19T07:29:36;17.42;;;6.13;;
67997;SDS011;54773;53.388;-1.504;2023-10-19T07:32:20;13.45;;;5.95;;
67997;SDS011;54773;53.388;-1.504;2023-10-19T07:35:05;16.52;;;7.15;;
67997;SDS011;54773;53.388;-1.504;2023-10-19T07:37:49;20.83;;;7.25;;
67997;SDS011;54773;53.388;-1.504;2023-10-19T07:40:34;15.95;;;6.75;;
67997;SDS011;54773;53.388;-1.504;2023-10-19T07:43:18;12.77;;;5.72;;
67997;SDS011;54773;53.388;-1.504;2023-10-19T07:46:03;15.18;;;5.75;;
67997;SDS011;54773;53.388;-1.504;2023-10-19T07:48:47;10.73;;;5.78;;
67997;SDS011;54773;53.388;-1.504;2023-10-19T07:51:32;9.93;;;5.22;;
67997;SDS011;54773;53.388;-1.504;2023-10-19T07:54:16;10.52;;;5.22;;
67997;SDS011;54773;53.388;-1.504;2023-10-19T07:57:00;13.05;;;5.60;;
67997;SDS011;54773;53.388;-1.504;2023-10-19T07:59:46;14.98;;;4.80;;
67997;SDS011;54773;53.388;-1.504;2023-10-19T08:02:31;10.32;;;4.63;;
67997;SDS011;54773;53.388;-1.504;2023-10-19T08:05:17;12.30;;;4.88;;
67997;SDS011;54773;53.388;-1.504;2023-10-19T08:08:02;7.63;;;4.55;;
67997;SDS011;54773;53.388;-1.504;2023-10-19T08:10:48;9.98;;;4.47;;
67997;SDS011;54773;53.388;-1.504;2023-10-19T08:13:32;11.07;;;4.72;;
67997;SDS011;54773;53.388;-1.504;2023-10-19T08:16:16;12.27;;;4.50;;
67997;SDS011;54773;53.388;-1.504;2023-10-19T08:19:00;16.10;;;5.17;;
67997;SDS011;54773;53.388;-1.504;2023-10-19T08:21:44;31.60;;;6.72;;
67997;SDS011;54773;53.388;-1.504;2023-10-19T08:24:28;11.32;;;4.97;;
67997;SDS011;54773;53.388;-1.504;2023-10-19T08:27:14;11.45;;;5.22;;
67997;SDS011;54773;53.388;-1.504;2023-10-19T08:29:58;10.87;;;4.43;;
67997;SDS011;54773;53.388;-1.504;2023-10-19T08:32:42;42.80;;;7.93;;
67997;SDS011;54773;53.388;-1.504;2023-10-19T08:35:26;32.08;;;6.20;;
67997;SDS011;54773;53.388;-1.504;2023-10-19T08:38:10;36.45;;;7.72;;
67997;SDS011;54773;53.388;-1.504;2023-10-19T08:40:54;11.82;;;5.72;;
67997;SDS011;54773;53.388;-1.504;2023-10-19T08:43:38;29.35;;;6.32;;
67997;SDS011;54773;53.388;-1.504;2023-10-19T08:46:23;10.82;;;5.50;;
67997;SDS011;54773;53.388;-1.504;2023-10-19T08:49:11;10.80;;;5.43;;
67997;SDS011;54773;53.388;-1.504;2023-10-19T08:51:56;17.75;;;6.15;;
67997;SDS011;54773;53.388;-1.504;2023-10-19T08:54:42;15.30;;;7.30;;
67997;SDS011;54773;53.388;-1.504;2023-10-19T08:57:27;15.57;;;6.60;;
67997;SDS011;54773;53.388;-1.504;2023-10-19T09:00:12;14.55;;;6.68;;
67997;SDS011;54773;53.388;-1.504;2023-10-19T09:03:01;16.52;;;6.57;;
67997;SDS011;54773;53.388;-1.504;2023-10-19T09:05:49;15.98;;;7.55;;
67997;SDS011;54773;53.388;-1.504;2023-10-19T09:08:33;15.23;;;8.03;;
67997;SDS011;54773;53.388;-1.504;2023-10-19T09:11:23;21.15;;;9.15;;
67997;SDS011;54773;53.388;-1.504;2023-10-19T09:14:08;18.20;;;9.32;;
67997;SDS011;54773;53.388;-1.504;2023-10-19T09:16:55;23.17;;;9.68;;
67997;SDS011;54773;53.388;-1.504;2023-10-19T09:19:41;17.58;;;8.93;;
67997;SDS011;54773;53.388;-1.504;2023-10-19T09:22:26;14.15;;;8.48;;
67997;SDS011;54773;53.388;-1.504;2023-10-19T09:25:20;17.08;;;8.93;;
67997;SDS011;54773;53.388;-1.504;2023-10-19T09:28:04;19.35;;;8.63;;
67997;SDS011;54773;53.388;-1.504;2023-10-19T09:30:49;17.42;;;8.18;;
67997;SDS011;54773;53.388;-1.504;2023-10-19T09:33:34;20.40;;;8.13;;
67997;SDS011;54773;53.388;-1.504;2023-10-19T09:36:18;14.85;;;8.25;;
67997;SDS011;54773;53.388;-1.504;2023-10-19T09:39:01;17.98;;;7.35;;
67997;SDS011;54773;53.388;-1.504;2023-10-19T09:41:47;14.30;;;6.53;;
67997;SDS011;54773;53.388;-1.504;2023-10-19T09:44:39;13.95;;;6.55;;
67997;SDS011;54773;53.388;-1.504;2023-10-19T09:47:35;10.73;;;6.22;;
67997;SDS011;54773;53.388;-1.504;2023-10-19T09:50:25;7.97;;;5.03;;
67997;SDS011;54773;53.388;-1.504;2023-10-19T09:53:09;12.30;;;6.80;;
67997;SDS011;54773;53.388;-1.504;2023-10-19T09:55:56;9.30;;;5.18;;
67997;SDS011;54773;53.388;-1.504;2023-10-19T09:58:45;14.35;;;5.75;;
67997;SDS011;54773;53.388;-1.504;2023-10-19T10:04:50;10.15;;;4.68;;
67997;SDS011;54773;53.388;-1.504;2023-10-19T10:07:37;10.18;;;4.30;;
67997;SDS011;54773;53.388;-1.504;2023-10-19T10:10:22;15.80;;;4.85;;
67997;SDS011;54773;53.388;-1.504;2023-10-19T10:16:13;11.68;;;4.60;;
67997;SDS011;54773;53.388;-1.504;2023-10-19T10:18:59;12.32;;;3.95;;
67997;SDS011;54773;53.388;-1.504;2023-10-19T10:21:58;9.65;;;3.90;;
67997;SDS011;54773;53.388;-1.504;2023-10-19T10:24:53;9.32;;;3.05;;
67997;SDS011;54773;53.388;-1.504;2023-10-19T10:27:50;10.50;;;2.67;;
67997;SDS011;54773;53.388;-1.504;2023-10-19T10:30:34;8.73;;;2.88;;
67997;SDS011;54773;53.388;-1.504;2023-10-19T10:33:37;12.15;;;2.97;;
67997;SDS011;54773;53.388;-1.504;2023-10-19T10:36:22;12.55;;;2.63;;
67997;SDS011;54773;53.388;-1.504;2023-10-19T10:39:06;10.07;;;2.65;;
67997;SDS011;54773;53.388;-1.504;2023-10-19T10:41:58;16.58;;;2.97;;
67997;SDS011;54773;53.388;-1.504;2023-10-19T10:44:46;13.43;;;2.90;;
67997;SDS011;54773;53.388;-1.504;2023-10-19T10:47:32;10.32;;;3.05;;
67997;SDS011;54773;53.388;-1.504;2023-10-19T10:50:19;10.75;;;2.70;;
67997;SDS011;54773;53.388;-1.504;2023-10-19T10:53:05;11.43;;;2.85;;
67997;SDS011;54773;53.388;-1.504;2023-10-19T10:55:48;11.18;;;2.95;;
67997;SDS011;54773;53.388;-1.504;2023-10-19T10:58:32;13.40;;;3.70;;
67997;SDS011;54773;53.388;-1.504;2023-10-19T11:01:29;18.73;;;3.77;;
67997;SDS011;54773;53.388;-1.504;2023-10-19T11:04:14;12.18;;;4.32;;
67997;SDS011;54773;53.388;-1.504;2023-10-19T11:06:59;15.27;;;4.13;;
67997;SDS011;54773;53.388;-1.504;2023-10-19T11:09:44;12.38;;;3.90;;
67997;SDS011;54773;53.388;-1.504;2023-10-19T11:12:28;12.60;;;4.00;;
67997;SDS011;54773;53.388;-1.504;2023-10-19T11:15:13;15.27;;;4.28;;
67997;SDS011;54773;53.388;-1.504;2023-10-19T11:18:05;15.35;;;4.40;;
67997;SDS011;54773;53.388;-1.504;2023-10-19T11:20:53;14.73;;;4.32;;
67997;SDS011;54773;53.388;-1.504;2023-10-19T11:23:39;13.00;;;4.00;;
67997;SDS011;54773;53.388;-1.504;2023-10-19T11:26:24;10.98;;;4.05;;
67997;SDS011;54773;53.388;-1.504;2023-10-19T11:29:09;15.77;;;5.05;;
67997;SDS011;54773;53.388;-1.504;2023-10-19T11:31:57;8.63;;;4.22;;
67997;SDS011;54773;53.388;-1.504;2023-10-19T11:34:43;10.38;;;4.18;;
67997;SDS011;54773;53.388;-1.504;2023-10-19T11:37:27;11.55;;;3.63;;
67997;SDS011;54773;53.388;-1.504;2023-10-19T11:40:11;9.88;;;3.83;;
67997;SDS011;54773;53.388;-1.504;2023-10-19T11:42:55;9.47;;;3.83;;
67997;SDS011;54773;53.388;-1.504;2023-10-19T11:45:44;8.88;;;3.25;;
67997;SDS011;54773;53.388;-1.504;2023-10-19T11:48:30;13.60;;;4.13;;
67997;SDS011;54773;53.388;-1.504;2023-10-19T11:51:15;11.65;;;3.53;;
67997;SDS011;54773;53.388;-1.504;2023-10-19T11:53:59;13.13;;;4.72;;
67997;SDS011;54773;53.388;-1.504;2023-10-19T11:56:42;10.13;;;3.53;;
67997;SDS011;54773;53.388;-1.504;2023-10-19T11:59:27;11.48;;;3.17;;
67997;SDS011;54773;53.388;-1.504;2023-10-19T12:02:11;11.20;;;2.75;;
67997;SDS011;54773;53.388;-1.504;2023-10-19T12:04:55;10.40;;;3.00;;
67997;SDS011;54773;53.388;-1.504;2023-10-19T12:07:39;10.93;;;2.92;;
67997;SDS011;54773;53.388;-1.504;2023-10-19T12:10:24;11.00;;;2.10;;
67997;SDS011;54773;53.388;-1.504;2023-10-19T12:13:16;8.63;;;2.03;;
67997;SDS011;54773;53.388;-1.504;2023-10-19T12:16:01;10.32;;;2.05;;
67997;SDS011;54773;53.388;-1.504;2023-10-19T12:18:48;6.28;;;1.70;;
67997;SDS011;54773;53.388;-1.504;2023-10-19T12:21:35;9.02;;;2.25;;
67997;SDS011;54773;53.388;-1.504;2023-10-19T12:24:21;10.05;;;2.00;;
67997;SDS011;54773;53.388;-1.504;2023-10-19T12:27:05;14.07;;;2.38;;
67997;SDS011;54773;53.388;-1.504;2023-10-19T12:29:51;8.30;;;2.05;;
67997;SDS011;54773;53.388;-1.504;2023-10-19T12:32:39;11.32;;;1.90;;
67997;SDS011;54773;53.388;-1.504;2023-10-19T12:35:23;10.15;;;2.15;;
67997;SDS011;54773;53.388;-1.504;2023-10-19T12:38:25;9.82;;;1.88;;
67997;SDS011;54773;53.388;-1.504;2023-10-19T12:41:10;8.95;;;1.83;;
67997;SDS011;54773;53.388;-1.504;2023-10-19T12:43:54;8.27;;;2.13;;
67997;SDS011;54773;53.388;-1.504;2023-10-19T12:46:41;10.07;;;2.50;;
67997;SDS011;54773;53.388;-1.504;2023-10-19T12:49:25;15.48;;;2.75;;
67997;SDS011;54773;53.388;-1.504;2023-10-19T12:52:09;9.80;;;2.20;;
67997;SDS011;54773;53.388;-1.504;2023-10-19T12:54:54;7.78;;;1.95;;
67997;SDS011;54773;53.388;-1.504;2023-10-19T12:57:43;9.20;;;2.35;;
67997;SDS011;54773;53.388;-1.504;2023-10-19T13:00:27;7.00;;;2.40;;
67997;SDS011;54773;53.388;-1.504;2023-10-19T13:03:13;6.72;;;2.10;;
67997;SDS011;54773;53.388;-1.504;2023-10-19T13:05:57;11.00;;;2.33;;
67997;SDS011;54773;53.388;-1.504;2023-10-19T13:08:49;11.00;;;2.30;;
67997;SDS011;54773;53.388;-1.504;2023-10-19T13:11:32;12.23;;;2.60;;
67997;SDS011;54773;53.388;-1.504;2023-10-19T13:14:17;11.63;;;2.78;;
67997;SDS011;54773;53.388;-1.504;2023-10-19T13:17:02;11.00;;;2.63;;
67997;SDS011;54773;53.388;-1.504;2023-10-19T13:19:45;10.82;;;2.50;;
67997;SDS011;54773;53.388;-1.504;2023-10-19T13:22:29;9.23;;;2.30;;
67997;SDS011;54773;53.388;-1.504;2023-10-19T13:25:17;10.32;;;2.45;;
67997;SDS011;54773;53.388;-1.504;2023-10-19T13:28:02;12.93;;;2.97;;
67997;SDS011;54773;53.388;-1.504;2023-10-19T13:33:32;10.15;;;3.28;;
67997;SDS011;54773;53.388;-1.504;2023-10-19T13:36:17;9.32;;;3.20;;
67997;SDS011;54773;53.388;-1.504;2023-10-19T13:39:01;13.15;;;2.80;;
67997;SDS011;54773;53.388;-1.504;2023-10-19T13:41:45;12.23;;;3.20;;
67997;SDS011;54773;53.388;-1.504;2023-10-19T13:44:29;8.80;;;2.65;;
67997;SDS011;54773;53.388;-1.504;2023-10-19T13:47:13;12.55;;;2.90;;
67997;SDS011;54773;53.388;-1.504;2023-10-19T13:49:57;10.23;;;3.20;;
67997;SDS011;54773;53.388;-1.504;2023-10-19T13:52:41;12.07;;;2.67;;
67997;SDS011;54773;53.388;-1.504;2023-10-19T13:55:25;9.23;;;2.97;;
67997;SDS011;54773;53.388;-1.504;2023-10-19T13:58:09;13.30;;;2.58;;
67997;SDS011;54773;53.388;-1.504;2023-10-19T14:00:53;9.10;;;2.78;;
67997;SDS011;54773;53.388;-1.504;2023-10-19T14:03:37;9.85;;;2.72;;
67997;SDS011;54773;53.388;-1.504;2023-10-19T14:06:21;8.38;;;2.80;;
67997;SDS011;54773;53.388;-1.504;2023-10-19T14:09:05;11.95;;;2.90;;
67997;SDS011;54773;53.388;-1.504;2023-10-19T14:11:50;13.27;;;2.70;;
67997;SDS011;54773;53.388;-1.504;2023-10-19T14:14:34;9.98;;;2.85;;
67997;SDS011;54773;53.388;-1.504;2023-10-19T14:17:18;7.20;;;2.47;;
67997;SDS011;54773;53.388;-1.504;2023-10-19T14:20:02;10.50;;;3.08;;
67997;SDS011;54773;53.388;-1.504;2023-10-19T14:22:49;12.82;;;3.00;;
67997;SDS011;54773;53.388;-1.504;2023-10-19T14:25:37;9.57;;;3.10;;
67997;SDS011;54773;53.388;-1.504;2023-10-19T14:28:26;7.40;;;2.40;;
67997;SDS011;54773;53.388;-1.504;2023-10-19T14:31:11;11.82;;;2.45;;
67997;SDS011;54773;53.388;-1.504;2023-10-19T14:33:56;10.25;;;3.10;;
67997;SDS011;54773;53.388;-1.504;2023-10-19T14:36:41;10.70;;;2.85;;
67997;SDS011;54773;53.388;-1.504;2023-10-19T14:39:25;10.63;;;2.60;;
67997;SDS011;54773;53.388;-1.504;2023-10-19T14:42:09;6.80;;;3.07;;
67997;SDS011;54773;53.388;-1.504;2023-10-19T14:44:53;12.65;;;2.85;;
67997;SDS011;54773;53.388;-1.504;2023-10-19T14:47:37;12.38;;;2.72;;
67997;SDS011;54773;53.388;-1.504;2023-10-19T14:50:24;10.75;;;3.28;;
67997;SDS011;54773;53.388;-1.504;2023-10-19T14:53:10;14.50;;;2.90;;
67997;SDS011;54773;53.388;-1.504;2023-10-19T14:55:55;11.70;;;2.72;;
67997;SDS011;54773;53.388;-1.504;2023-10-19T14:58:40;8.48;;;3.17;;
67997;SDS011;54773;53.388;-1.504;2023-10-19T15:01:24;10.48;;;2.28;;
67997;SDS011;54773;53.388;-1.504;2023-10-19T15:06:53;10.93;;;2.70;;
67997;SDS011;54773;53.388;-1.504;2023-10-19T15:09:37;10.07;;;2.50;;
67997;SDS011;54773;53.388;-1.504;2023-10-19T15:12:21;11.87;;;3.13;;
67997;SDS011;54773;53.388;-1.504;2023-10-19T15:15:05;15.73;;;3.40;;
67997;SDS011;54773;53.388;-1.504;2023-10-19T15:17:51;13.98;;;3.97;;
67997;SDS011;54773;53.388;-1.504;2023-10-19T15:20:36;10.57;;;3.10;;
67997;SDS011;54773;53.388;-1.504;2023-10-19T15:23:20;9.57;;;2.63;;
67997;SDS011;54773;53.388;-1.504;2023-10-19T15:26:05;9.52;;;3.05;;
67997;SDS011;54773;53.388;-1.504;2023-10-19T15:28:50;13.02;;;2.95;;
67997;SDS011;54773;53.388;-1.504;2023-10-19T15:31:34;11.17;;;3.53;;
67997;SDS011;54773;53.388;-1.504;2023-10-19T15:34:18;12.65;;;2.88;;
67997;SDS011;54773;53.388;-1.504;2023-10-19T15:37:03;13.25;;;3.33;;
67997;SDS011;54773;53.388;-1.504;2023-10-19T15:39:51;14.07;;;4.13;;
67997;SDS011;54773;53.388;-1.504;2023-10-19T15:42:35;13.20;;;3.55;;
67997;SDS011;54773;53.388;-1.504;2023-10-19T15:45:24;11.25;;;3.05;;
67997;SDS011;54773;53.388;-1.504;2023-10-19T15:48:09;15.65;;;3.40;;
67997;SDS011;54773;53.388;-1.504;2023-10-19T15:50:56;15.27;;;3.80;;
67997;SDS011;54773;53.388;-1.504;2023-10-19T15:53:40;11.95;;;3.75;;
67997;SDS011;54773;53.388;-1.504;2023-10-19T15:56:24;12.75;;;3.72;;
67997;SDS011;54773;53.388;-1.504;2023-10-19T15:59:10;11.50;;;4.18;;
67997;SDS011;54773;53.388;-1.504;2023-10-19T16:01:55;9.73;;;4.07;;
67997;SDS011;54773;53.388;-1.504;2023-10-19T16:04:42;15.88;;;4.15;;
67997;SDS011;54773;53.388;-1.504;2023-10-19T16:07:27;17.67;;;4.28;;
67997;SDS011;54773;53.388;-1.504;2023-10-19T16:10:14;12.82;;;3.28;;
67997;SDS011;54773;53.388;-1.504;2023-10-19T16:12:58;11.77;;;3.85;;
67997;SDS011;54773;53.388;-1.504;2023-10-19T16:15:42;12.32;;;3.60;;
67997;SDS011;54773;53.388;-1.504;2023-10-19T16:18:27;15.13;;;3.83;;
67997;SDS011;54773;53.388;-1.504;2023-10-19T16:21:12;12.05;;;3.22;;
67997;SDS011;54773;53.388;-1.504;2023-10-19T16:23:56;12.73;;;3.00;;
67997;SDS011;54773;53.388;-1.504;2023-10-19T16:26:41;14.02;;;3.00;;
67997;SDS011;54773;53.388;-1.504;2023-10-19T16:29:25;12.50;;;3.33;;
67997;SDS011;54773;53.388;-1.504;2023-10-19T16:32:12;14.57;;;3.83;;
67997;SDS011;54773;53.388;-1.504;2023-10-19T16:34:56;19.87;;;3.43;;
67997;SDS011;54773;53.388;-1.504;2023-10-19T16:37:40;14.18;;;3.45;;